Time;durP1;ratioP1;P1;durP2;ratioP2;P2;SDS_P1;SDS_P2;PMS_P1;PMS_P2;Temp;Humidity;BMP_temperature;BMP_pressure;BME280_temperature;BME280_humidity;BME280_pressure;Samples;Min_cycle;Max_cycle;Signal;HPM_P1;HPM_P2
2024/02/22 00:00:56;;;;;;;9.55;3.72;;;;;;;9.67;100.00;99887.50;6083932;19;20018;-74
2024/02/22 00:03:01;;;;;;;8.73;5.18;;;;;;;9.68;100.00;99891.81;6084199;19;20010;-73
2024/02/22 00:05:09;;;;;;;11.48;4.47;;;;;;;9.71;100.00;99887.34;6084682;19;20028;-76
2024/02/22 00:07:16;;;;;;;11.52;4.65;;;;;;;9.71;100.00;99884.72;6085607;19;20038;-73
2024/02/22 00:09:21;;;;;;;13.82;4.55;;;;;;;9.71;100.00;99882.09;6083826;19;20019;-75
2024/02/22 00:11:26;;;;;;;19.20;5.20;;;;;;;9.69;100.00;99884.81;6082501;19;20023;-73
2024/02/22 00:13:29;;;;;;;14.50;4.03;;;;;;;9.70;100.00;99883.03;6083815;19;20098;-74
2024/02/22 00:15:35;;;;;;;10.35;4.15;;;;;;;9.71;100.00;99876.84;6083084;19;20031;-71
2024/02/22 00:17:40;;;;;;;13.00;5.00;;;;;;;9.66;100.00;99869.22;6083734;19;20010;-74
2024/02/22 00:19:45;;;;;;;16.23;4.90;;;;;;;9.68;100.00;99868.22;6083314;19;20014;-73
2024/02/22 00:21:52;;;;;;;15.10;5.20;;;;;;;9.67;100.00;99863.91;6082585;19;20009;-74
2024/02/22 00:23:57;;;;;;;15.10;4.57;;;;;;;9.70;100.00;99859.44;6082541;19;20007;-73
2024/02/22 00:26:06;;;;;;;15.35;4.50;;;;;;;9.70;100.00;99865.50;6084973;19;20568;-73
2024/02/22 00:28:11;;;;;;;14.77;4.72;;;;;;;9.64;100.00;99861.44;6090201;19;20011;-75
2024/02/22 00:30:13;;;;;;;15.90;5.03;;;;;;;9.64;100.00;99860.59;6084618;19;20020;-75
2024/02/22 00:32:21;;;;;;;12.63;5.95;;;;;;;9.65;100.00;99862.28;6081373;19;20013;-73
2024/02/22 00:34:26;;;;;;;18.92;5.60;;;;;;;9.65;100.00;99862.28;6089454;19;20472;-73
2024/02/22 00:36:32;;;;;;;20.90;7.38;;;;;;;9.64;100.00;99861.44;6089136;19;20066;-73
2024/02/22 00:38:39;;;;;;;18.15;5.85;;;;;;;9.64;100.00;99853.56;6087452;19;20014;-73
2024/02/22 00:40:45;;;;;;;20.60;5.07;;;;;;;9.63;100.00;99858.88;6090796;19;20046;-73
2024/02/22 00:42:50;;;;;;;19.77;5.68;;;;;;;9.66;100.00;99848.22;6082076;19;20015;-73
2024/02/22 00:44:55;;;;;;;17.35;5.20;;;;;;;9.63;100.00;99844.00;6087814;19;20006;-74
2024/02/22 00:47:00;;;;;;;14.88;4.38;;;;;;;9.65;100.00;99851.78;6086030;19;20926;-73
2024/02/22 00:49:06;;;;;;;23.67;6.18;;;;;;;9.64;100.00;99855.34;6085628;19;20024;-74
2024/02/22 00:51:11;;;;;;;19.52;5.25;;;;;;;9.63;100.00;99841.38;6085825;19;20011;-75
2024/02/22 00:53:14;;;;;;;16.90;5.35;;;;;;;9.66;100.00;99838.59;6084211;19;20007;-75
2024/02/22 00:55:23;;;;;;;20.60;5.13;;;;;;;9.60;100.00;99833.66;6089025;19;20007;-74
2024/02/22 00:57:28;;;;;;;18.63;4.82;;;;;;;9.62;100.00;99839.69;6086773;19;20011;-75
2024/02/22 00:59:34;;;;;;;24.42;5.38;;;;;;;9.59;100.00;99834.59;6087699;19;20023;-75
2024/02/22 01:01:41;;;;;;;18.70;4.97;;;;;;;9.62;100.00;99836.22;6086118;19;20003;-75
2024/02/22 01:03:46;;;;;;;9.93;3.63;;;;;;;9.59;100.00;99831.97;6086480;19;20017;-72
2024/02/22 01:05:51;;;;;;;20.95;4.43;;;;;;;9.59;100.00;99829.34;6087164;19;20006;-73
2024/02/22 01:07:56;;;;;;;13.73;4.03;;;;;;;9.59;100.00;99828.50;6088031;19;20464;-73
2024/02/22 01:09:59;;;;;;;14.45;5.00;;;;;;;9.58;100.00;99830.25;6086192;19;20364;-73
2024/02/22 01:12:07;;;;;;;25.13;6.18;;;;;;;9.56;100.00;99828.69;6086544;19;20015;-73
2024/02/22 01:14:12;;;;;;;18.48;5.45;;;;;;;9.55;100.00;99835.69;6085333;19;20006;-73
2024/02/22 01:16:19;;;;;;;20.70;6.15;;;;;;;9.54;100.00;99825.28;6088186;19;20013;-74
2024/02/22 01:18:22;;;;;;;18.42;5.88;;;;;;;9.57;100.00;99831.22;6088049;19;20098;-74
2024/02/22 01:20:27;;;;;;;20.90;6.18;;;;;;;9.58;100.00;99819.78;6090638;19;20032;-73
2024/02/22 01:22:32;;;;;;;23.98;7.53;;;;;;;9.56;100.00;99818.19;6086518;19;20410;-74
2024/02/22 01:24:37;;;;;;;29.83;6.90;;;;;;;9.53;100.00;99820.94;6087320;19;20502;-73
2024/02/22 01:26:43;;;;;;;32.10;9.23;;;;;;;9.51;100.00;99812.34;6089101;19;20015;-73
2024/02/22 01:28:50;;;;;;;30.27;7.13;;;;;;;9.55;100.00;99803.38;6087943;19;20031;-73
2024/02/22 01:30:55;;;;;;;24.05;5.53;;;;;;;9.57;100.00;99801.50;6087047;19;20445;-72
2024/02/22 01:33:00;;;;;;;19.15;6.03;;;;;;;9.54;100.00;99794.66;6086219;19;20033;-73
2024/02/22 01:35:08;;;;;;;40.15;6.53;;;;;;;9.52;100.00;99799.13;6086163;19;20006;-73
2024/02/22 01:37:14;;;;;;;21.70;6.22;;;;;;;9.52;100.00;99799.13;6087126;19;20014;-72
2024/02/22 01:39:17;;;;;;;29.42;6.15;;;;;;;9.51;100.00;99800.06;6083567;19;20538;-72
2024/02/22 01:41:22;;;;;;;18.75;5.65;;;;;;;9.53;100.00;99790.34;6085409;19;20336;-72
2024/02/22 01:43:29;;;;;;;16.00;5.82;;;;;;;9.53;100.00;99790.34;6088135;19;20449;-72
2024/02/22 01:45:38;;;;;;;19.55;6.00;;;;;;;9.49;100.00;99783.56;6087311;19;20042;-71
2024/02/22 01:47:43;;;;;;;29.17;6.78;;;;;;;9.47;100.00;99785.41;6088349;19;20026;-71
2024/02/22 01:49:50;;;;;;;25.13;5.95;;;;;;;9.49;100.00;99783.56;6085606;19;20599;-74
2024/02/22 01:51:57;;;;;;;28.95;4.97;;;;;;;9.52;100.00;99787.78;6085761;19;20672;-73
2024/02/22 01:54:03;;;;;;;29.30;6.38;;;;;;;9.46;100.00;99778.47;6082628;19;20018;-74
2024/02/22 01:56:09;;;;;;;23.17;5.47;;;;;;;9.51;100.00;99780.88;6087684;19;20429;-73
2024/02/22 01:58:16;;;;;;;36.00;6.18;;;;;;;9.45;100.00;99780.25;6085970;19;20010;-74
2024/02/22 02:00:23;;;;;;;29.92;6.75;;;;;;;9.51;100.00;99778.25;6087540;19;20017;-74
2024/02/22 02:02:30;;;;;;;25.48;5.47;;;;;;;9.48;100.00;99766.16;6080794;19;20082;-73
2024/02/22 02:04:37;;;;;;;25.08;5.82;;;;;;;9.50;100.00;99761.63;6087469;19;20585;-74
2024/02/22 02:06:43;;;;;;;19.65;4.57;;;;;;;9.42;100.00;99764.66;6085095;19;20014;-73
2024/02/22 02:08:48;;;;;;;24.67;6.60;;;;;;;9.45;100.00;99763.66;6087639;19;20023;-74
2024/02/22 02:10:50;;;;;;;17.30;4.35;;;;;;;9.43;100.00;99760.28;6086973;19;20010;-74
2024/02/22 02:13:03;;;;;;;;;;;;;;;9.45;100.00;99768.91;6088818;19;20510;-74
2024/02/22 02:15:09;;;;;;;30.40;5.60;;;;;;;9.43;100.00;99757.69;6088471;19;19982;-72
2024/02/22 02:17:14;;;;;;;16.58;4.90;;;;;;;9.43;100.00;99761.13;6087303;19;20007;-72
2024/02/22 02:19:24;;;;;;;18.63;4.07;;;;;;;9.43;100.00;99747.19;6084276;19;20326;-73
2024/02/22 02:21:31;;;;;;;28.13;4.85;;;;;;;9.41;100.00;99749.03;6082967;19;20010;-72
2024/02/22 02:24:00;;;;;;;25.13;5.32;;;;;;;9.39;100.00;99741.25;6086064;19;20038;-72
2024/02/22 02:26:06;;;;;;;22.08;8.15;;;;;;;9.41;100.00;99746.41;6087493;19;20006;-73
2024/02/22 02:28:11;;;;;;;23.92;6.00;;;;;;;9.42;100.00;99734.97;6085472;19;20008;-72
2024/02/22 02:30:16;;;;;;;31.38;5.72;;;;;;;9.43;100.00;99739.31;6085853;19;20011;-72
2024/02/22 02:32:21;;;;;;;19.75;4.63;;;;;;;9.41;100.00;99744.63;6084414;19;20492;-72
2024/02/22 02:34:26;;;;;;;26.42;6.22;;;;;;;9.40;100.00;99731.59;6083639;19;20032;-73
2024/02/22 02:36:29;;;;;;;25.17;7.13;;;;;;;9.39;100.00;99745.63;6085160;19;20014;-73
2024/02/22 02:38:35;;;;;;;27.38;6.68;;;;;;;9.39;100.00;99729.91;6086484;19;20336;-73
2024/02/22 02:40:40;;;;;;;31.67;6.72;;;;;;;9.42;100.00;99740.22;6086473;19;20027;-72
2024/02/22 02:42:47;;;;;;;29.13;6.40;;;;;;;9.44;100.00;99731.34;6086845;19;20014;-73
2024/02/22 02:44:52;;;;;;;23.40;7.05;;;;;;;9.39;100.00;99736.00;6087682;19;20103;-72
2024/02/22 02:46:57;;;;;;;22.50;5.95;;;;;;;9.38;100.00;99731.69;6084526;19;20074;-72
2024/02/22 02:49:02;;;;;;;32.65;7.72;;;;;;;9.39;100.00;99727.28;6085990;19;20097;-72
2024/02/22 02:51:10;;;;;;;30.90;6.43;;;;;;;9.42;100.00;99730.56;6085277;19;20537;-72
2024/02/22 02:53:16;;;;;;;21.95;5.72;;;;;;;9.45;100.00;99724.31;6081422;19;20022;-72
2024/02/22 02:55:21;;;;;;;32.40;7.28;;;;;;;9.42;100.00;99719.25;6085329;19;20459;-72
2024/02/22 02:57:26;;;;;;;27.90;6.85;;;;;;;9.42;100.00;99719.25;6085846;19;20010;-72
2024/02/22 02:59:35;;;;;;;23.85;4.95;;;;;;;9.40;100.00;99708.88;6086634;19;20446;-73
2024/02/22 03:01:47;;;;;;;29.15;7.05;;;;;;;9.40;100.00;99710.63;6086467;19;20045;-72
2024/02/22 03:03:52;;;;;;;31.23;7.18;;;;;;;9.37;100.00;99706.41;6084260;19;20301;-72
2024/02/22 03:05:57;;;;;;;36.65;6.63;;;;;;;9.40;100.00;99702.75;6085562;19;20061;-72
2024/02/22 03:08:03;;;;;;;29.35;7.07;;;;;;;9.40;100.00;99711.47;6087720;19;20312;-72
2024/02/22 03:10:09;;;;;;;33.72;7.28;;;;;;;9.38;100.00;99707.25;6085619;19;20101;-73
2024/02/22 03:12:14;;;;;;;22.40;5.93;;;;;;;9.32;100.00;99702.31;6080796;19;20006;-73
2024/02/22 03:14:19;;;;;;;30.30;5.90;;;;;;;9.34;100.00;99692.59;6085393;19;20037;-72
2024/02/22 03:16:27;;;;;;;23.30;6.00;;;;;;;9.31;100.00;99691.00;6085826;19;20006;-72
2024/02/22 03:18:34;;;;;;;29.45;6.35;;;;;;;9.31;100.00;99677.88;6082035;19;20038;-72
2024/02/22 03:20:41;;;;;;;22.73;5.57;;;;;;;9.34;100.00;99682.09;6083974;19;20101;-72
2024/02/22 03:22:43;;;;;;;16.00;4.53;;;;;;;9.33;100.00;99685.69;6083520;19;20440;-74
2024/02/22 03:24:49;;;;;;;19.23;5.10;;;;;;;9.35;100.00;99683.81;6082488;19;20384;-74
2024/02/22 03:26:56;;;;;;;25.58;5.22;;;;;;;9.33;100.00;99688.28;6084562;19;20762;-71
2024/02/22 03:29:01;;;;;;;18.75;4.60;;;;;;;9.31;100.00;99672.63;6085671;19;20032;-72
2024/02/22 03:31:07;;;;;;;24.63;5.25;;;;;;;9.30;100.00;99673.56;6086168;19;20010;-72
2024/02/22 03:33:14;;;;;;;18.10;5.45;;;;;;;9.29;100.00;99668.41;6085133;19;20011;-72
2024/02/22 03:35:17;;;;;;;29.00;5.63;;;;;;;9.30;100.00;99664.88;6083185;19;20046;-73
2024/02/22 03:37:22;;;;;;;20.85;4.95;;;;;;;9.27;100.00;99663.25;6084081;19;20013;-72
2024/02/22 03:39:27;;;;;;;24.23;5.75;;;;;;;9.30;100.00;99662.25;6084279;19;20011;-73
2024/02/22 03:41:32;;;;;;;28.85;5.43;;;;;;;9.23;100.00;99662.56;6083693;19;20110;-72
2024/02/22 03:43:38;;;;;;;23.08;5.40;;;;;;;9.21;100.00;99653.94;6083323;19;20078;-72
2024/02/22 03:45:43;;;;;;;35.17;4.95;;;;;;;9.23;100.00;99649.47;6082748;19;20006;-73
2024/02/22 03:47:48;;;;;;;27.38;5.28;;;;;;;9.24;100.00;99647.66;6082949;19;20020;-72
2024/02/22 03:49:56;;;;;;;17.17;5.50;;;;;;;9.19;100.00;99644.47;6084797;19;20006;-72
2024/02/22 03:52:01;;;;;;;19.88;4.60;;;;;;;9.21;100.00;99635.56;6084830;19;20348;-73
2024/02/22 03:54:08;;;;;;;25.60;5.53;;;;;;;9.18;100.00;99625.25;6083529;19;20405;-73
2024/02/22 03:56:13;;;;;;;19.85;5.72;;;;;;;9.17;100.00;99615.72;6082873;19;20457;-73
2024/02/22 03:58:18;;;;;;;29.88;5.65;;;;;;;9.16;100.00;99626.28;6082548;19;20015;-73
2024/02/22 04:00:23;;;;;;;20.30;4.80;;;;;;;9.17;100.00;99630.59;6084380;19;20353;-73
2024/02/22 04:02:28;;;;;;;24.77;6.07;;;;;;;9.14;100.00;99631.63;6079368;19;20064;-73
2024/02/22 04:04:33;;;;;;;28.95;6.60;;;;;;;9.16;100.00;99629.78;6082181;19;20027;-73
2024/02/22 04:06:41;;;;;;;22.70;5.10;;;;;;;9.12;100.00;99622.16;6080903;19;20010;-73
2024/02/22 04:08:46;;;;;;;27.83;6.28;;;;;;;9.13;100.00;99611.56;6083355;19;20006;-73
2024/02/22 04:10:51;;;;;;;24.27;5.18;;;;;;;9.18;100.00;99606.91;6082450;19;20105;-72
2024/02/22 04:12:57;;;;;;;10.30;3.78;;;;;;;9.14;100.00;99608.03;6081384;19;20015;-74
2024/02/22 04:15:02;;;;;;;21.40;4.55;;;;;;;9.12;100.00;99602.03;6079509;19;20019;-74
2024/02/22 04:17:08;;;;;;;24.58;5.10;;;;;;;9.12;100.00;99601.19;6081576;19;20017;-74
2024/02/22 04:19:16;;;;;;;26.75;6.00;;;;;;;9.07;100.00;99598.81;6084134;19;20010;-73
2024/02/22 04:21:22;;;;;;;16.13;4.35;;;;;;;9.06;100.00;99602.38;6083350;19;20085;-74
2024/02/22 04:23:29;;;;;;;20.75;4.55;;;;;;;9.08;100.00;99600.47;6083984;19;20011;-75
2024/02/22 04:25:34;;;;;;;23.58;5.03;;;;;;;9.04;100.00;99593.72;6083143;19;20392;-74
2024/02/22 04:27:39;;;;;;;24.40;5.30;;;;;;;8.99;100.00;99586.13;6083656;19;20015;-74
2024/02/22 04:29:44;;;;;;;18.60;5.35;;;;;;;9.01;100.00;99593.91;6081751;19;20006;-75
2024/02/22 04:31:50;;;;;;;19.25;4.82;;;;;;;8.97;100.00;99587.97;6084894;19;20460;-73
2024/02/22 04:33:55;;;;;;;25.67;5.53;;;;;;;8.97;100.00;99582.72;6085713;19;20010;-73
2024/02/22 04:36:02;;;;;;;27.60;6.75;;;;;;;8.94;100.00;99590.75;6082660;19;20079;-73
2024/02/22 04:38:08;;;;;;;35.75;5.82;;;;;;;8.86;100.00;99584.25;6084435;19;20033;-73
2024/02/22 04:40:17;;;;;;;19.58;6.15;;;;;;;8.79;100.00;99586.31;6081599;19;20144;-72
2024/02/22 04:42:23;;;;;;;27.48;5.80;;;;;;;8.78;100.00;99589.88;6083439;19;20007;-73
2024/02/22 04:44:28;;;;;;;24.90;4.57;;;;;;;8.76;100.00;99589.13;6083181;19;20003;-73
2024/02/22 04:46:35;;;;;;;17.52;4.57;;;;;;;8.74;100.00;99578.75;6082946;19;20050;-72
2024/02/22 04:48:40;;;;;;;18.70;4.63;;;;;;;8.68;100.00;99579.03;6083214;19;20003;-73
2024/02/22 04:50:46;;;;;;;18.15;5.05;;;;;;;8.61;100.00;99582.06;6083851;19;20035;-73
2024/02/22 04:52:51;;;;;;;23.00;5.05;;;;;;;8.57;100.00;99579.59;6078807;19;20018;-73
2024/02/22 04:54:59;;;;;;;20.73;4.55;;;;;;;8.54;100.00;99571.06;6082032;19;20462;-74
2024/02/22 04:57:07;;;;;;;20.63;5.28;;;;;;;8.46;100.00;99562.78;6084291;19;20654;-74
2024/02/22 04:59:12;;;;;;;18.58;4.90;;;;;;;8.39;100.00;99553.50;6084066;19;20195;-74
2024/02/22 05:01:16;;;;;;;20.08;5.65;;;;;;;8.33;100.00;99554.69;6082746;19;20591;-75
2024/02/22 05:03:23;;;;;;;24.00;5.68;;;;;;;8.27;100.00;99557.63;6083051;19;20007;-75
2024/02/22 05:05:28;;;;;;;16.33;3.53;;;;;;;8.31;100.00;99546.06;6083438;19;20007;-75
2024/02/22 05:07:31;;;;;;;17.70;4.55;;;;;;;8.19;100.00;99550.16;6083739;19;20010;-76
2024/02/22 05:09:36;;;;;;;21.33;4.22;;;;;;;8.16;100.00;99554.69;6082625;19;20007;-74
2024/02/22 05:11:47;;;;;;;23.75;5.45;;;;;;;8.19;100.00;99549.31;6083493;19;20014;-75
2024/02/22 05:13:57;;;;;;;14.27;3.83;;;;;;;8.15;100.00;99543.38;6086051;19;20082;-74
2024/02/22 05:16:02;;;;;;;16.85;4.07;;;;;;;8.11;100.00;99539.25;6087515;19;20336;-73
2024/02/22 05:18:10;;;;;;;17.27;4.55;;;;;;;8.11;100.00;99540.09;6089005;19;20006;-74
2024/02/22 05:20:16;;;;;;;20.08;5.00;;;;;;;8.16;100.00;99539.84;6088326;19;20007;-73
2024/02/22 05:22:22;;;;;;;18.73;4.32;;;;;;;8.20;100.00;99538.75;6087723;19;20014;-74
2024/02/22 05:24:29;;;;;;;22.67;4.13;;;;;;;8.27;100.00;99534.06;6086790;19;20371;-73
2024/02/22 05:26:34;;;;;;;15.15;3.58;;;;;;;8.35;100.00;99539.75;6087476;19;20007;-74
2024/02/22 05:28:39;;;;;;;25.20;4.65;;;;;;;8.39;100.00;99537.81;6088573;19;20077;-74
2024/02/22 05:30:44;;;;;;;25.33;5.90;;;;;;;8.44;100.00;99538.44;6085499;19;20006;-74
2024/02/22 05:32:49;;;;;;;17.55;3.95;;;;;;;8.51;100.00;99527.56;6088852;19;20727;-74
2024/02/22 05:34:54;;;;;;;26.13;4.72;;;;;;;8.57;100.00;99523.78;6086541;19;20007;-74
2024/02/22 05:36:59;;;;;;;21.55;4.80;;;;;;;8.54;100.00;99523.94;6085082;19;20037;-74
2024/02/22 05:39:07;;;;;;;24.10;5.88;;;;;;;8.59;100.00;99516.69;6087882;19;20027;-74
2024/02/22 05:41:12;;;;;;;21.40;5.72;;;;;;;8.57;100.00;99505.44;6088664;19;20010;-74
2024/02/22 05:43:17;;;;;;;16.27;4.60;;;;;;;8.61;100.00;99500.88;6087444;19;20045;-74
2024/02/22 05:45:41;;;;;;;23.77;4.85;;;;;;;8.63;100.00;99499.03;6086790;19;20019;-73
2024/02/22 05:47:49;;;;;;;26.20;5.30;;;;;;;8.56;100.00;99496.75;6086480;19;20320;-74
2024/02/22 05:49:56;;;;;;;29.42;5.05;;;;;;;8.53;100.00;99496.06;6088427;19;20841;-74
2024/02/22 05:52:00;;;;;;;26.52;4.65;;;;;;;8.53;100.00;99485.59;6087472;19;20040;-73
2024/02/22 05:54:07;;;;;;;23.83;4.97;;;;;;;8.62;100.00;99492.97;6086551;19;20502;-73
2024/02/22 05:56:12;;;;;;;32.92;6.15;;;;;;;8.65;100.00;99491.94;6086567;19;20018;-73
2024/02/22 05:58:18;;;;;;;25.00;6.22;;;;;;;8.62;100.00;99492.97;6088021;19;20384;-73
2024/02/22 06:00:24;;;;;;;20.33;5.28;;;;;;;8.62;100.00;99489.50;6086967;19;20010;-73
2024/02/22 06:02:29;;;;;;;18.15;4.25;;;;;;;8.69;100.00;99478.63;6088170;19;20015;-75
2024/02/22 06:04:37;;;;;;;23.33;5.30;;;;;;;8.71;100.00;99474.13;6088125;19;20010;-74
2024/02/22 06:06:39;;;;;;;24.33;4.97;;;;;;;8.74;100.00;99468.72;6086746;19;20066;-74
2024/02/22 06:08:45;;;;;;;26.40;5.32;;;;;;;8.74;100.00;99460.00;6084261;19;20007;-74
2024/02/22 06:10:49;;;;;;;26.25;6.22;;;;;;;8.71;100.00;99455.78;6088310;19;20501;-76
2024/02/22 06:12:52;;;;;;;26.52;6.57;;;;;;;8.73;100.00;99456.56;6088219;19;20420;-74
2024/02/22 06:14:57;;;;;;;19.92;6.85;;;;;;;8.74;100.00;99447.78;6085994;19;20010;-74
2024/02/22 06:17:03;;;;;;;21.55;6.10;;;;;;;8.69;100.00;99447.19;6087217;19;20007;-74
2024/02/22 06:19:09;;;;;;;21.00;6.68;;;;;;;8.68;100.00;99434.16;6088987;19;20374;-74
2024/02/22 06:21:16;;;;;;;25.38;7.90;;;;;;;8.64;100.00;99435.28;6085844;19;20772;-73
2024/02/22 06:23:22;;;;;;;17.85;6.88;;;;;;;8.70;100.00;99429.69;6087380;19;20010;-73
2024/02/22 06:25:27;;;;;;;30.02;8.50;;;;;;;8.67;100.00;99430.72;6085058;19;20406;-75
2024/02/22 06:27:32;;;;;;;30.02;9.98;;;;;;;8.70;100.00;99425.28;6085234;19;20015;-75
2024/02/22 06:29:37;;;;;;;25.55;7.80;;;;;;;8.70;100.00;99422.69;6084776;19;20010;-73
2024/02/22 06:31:42;;;;;;;29.65;8.65;;;;;;;8.72;100.00;99425.22;6086065;19;20375;-73
2024/02/22 06:33:45;;;;;;;22.65;5.97;;;;;;;8.72;100.00;99410.34;6085812;19;20022;-74
2024/02/22 06:35:50;;;;;;;16.17;6.50;;;;;;;8.71;100.00;99398.16;6083944;19;20321;-74
2024/02/22 06:37:58;;;;;;;18.40;6.18;;;;;;;8.78;100.00;99404.75;6085749;19;20011;-73
2024/02/22 06:40:05;;;;;;;21.20;7.18;;;;;;;8.74;100.00;99403.25;6084947;19;20002;-73
2024/02/22 06:42:10;;;;;;;13.55;5.82;;;;;;;8.82;100.00;99396.72;6088237;19;20593;-74
2024/02/22 06:44:15;;;;;;;17.02;6.15;;;;;;;8.81;100.00;99384.56;6086982;19;20015;-75
2024/02/22 06:46:24;;;;;;;22.10;6.82;;;;;;;8.79;100.00;99375.03;6084442;19;20109;-73
2024/02/22 06:48:29;;;;;;;17.77;5.00;;;;;;;8.82;100.00;99362.66;6084485;19;20010;-73
2024/02/22 06:50:34;;;;;;;18.88;5.43;;;;;;;8.79;100.00;99356.69;6085890;19;20020;-75
2024/02/22 06:52:39;;;;;;;15.38;5.97;;;;;;;8.83;100.00;99352.13;6083718;19;20078;-72
2024/02/22 06:54:47;;;;;;;21.80;7.25;;;;;;;8.81;100.00;99345.28;6085946;19;20086;-74
2024/02/22 06:56:52;;;;;;;21.70;5.95;;;;;;;8.83;100.00;99348.66;6080221;19;20471;-75
2024/02/22 06:58:57;;;;;;;18.48;4.88;;;;;;;8.79;100.00;99350.59;6083359;19;20078;-76
2024/02/22 07:01:02;;;;;;;20.45;5.32;;;;;;;8.82;100.00;99354.81;6084381;19;20400;-73
2024/02/22 07:03:07;;;;;;;21.58;5.63;;;;;;;8.86;100.00;99358.97;6085976;19;20006;-75
2024/02/22 07:05:13;;;;;;;21.88;5.65;;;;;;;8.88;100.00;99359.72;6083849;19;20286;-72
2024/02/22 07:07:18;;;;;;;16.42;6.28;;;;;;;8.88;100.00;99357.09;6084356;19;20011;-72
2024/02/22 07:09:21;;;;;;;27.75;6.63;;;;;;;8.88;100.00;99355.31;6083434;19;20014;-76
2024/02/22 07:11:29;;;;;;;19.30;7.30;;;;;;;8.88;100.00;99357.09;6086069;19;20544;-75
2024/02/22 07:13:35;;;;;;;19.10;6.40;;;;;;;8.87;100.00;99355.41;6086444;19;20003;-73
2024/02/22 07:15:40;;;;;;;25.08;6.78;;;;;;;8.84;100.00;99340.69;6085061;19;20074;-74
2024/02/22 07:17:46;;;;;;;20.05;5.15;;;;;;;8.86;100.00;99328.34;6088441;19;20021;-74
2024/02/22 07:19:51;;;;;;;21.88;6.20;;;;;;;8.88;100.00;99320.44;6087061;19;20056;-73
2024/02/22 07:21:57;;;;;;;17.33;6.13;;;;;;;8.88;100.00;99315.19;6084969;19;20014;-73
2024/02/22 07:24:00;;;;;;;19.10;5.88;;;;;;;8.86;100.00;99310.03;6087448;19;20034;-73
2024/02/22 07:26:05;;;;;;;11.10;4.25;;;;;;;8.89;100.00;99307.22;6086328;19;20047;-73
2024/02/22 07:28:14;;;;;;;17.25;4.47;;;;;;;8.91;100.00;99304.53;6087684;19;20039;-74
2024/02/22 07:30:21;;;;;;;13.00;4.40;;;;;;;8.89;100.00;99311.63;6087839;19;20487;-74
2024/02/22 07:32:27;;;;;;;11.57;4.90;;;;;;;8.94;100.00;99304.34;6086121;19;20223;-73
2024/02/22 07:34:32;;;;;;;17.45;5.30;;;;;;;8.90;100.00;99311.56;6085614;19;20041;-74
2024/02/22 07:36:38;;;;;;;12.25;4.50;;;;;;;8.88;100.00;99292.44;6087862;19;20503;-75
2024/02/22 07:38:46;;;;;;;20.48;5.80;;;;;;;8.89;100.00;99291.50;6089185;19;20027;-75
2024/02/22 07:40:54;;;;;;;11.65;4.30;;;;;;;8.85;100.00;99279.53;6089991;19;20483;-75
2024/02/22 07:42:59;;;;;;;15.40;4.75;;;;;;;8.84;100.00;99277.81;6081411;19;20450;-74
2024/02/22 07:45:08;;;;;;;14.60;4.95;;;;;;;8.92;100.00;99285.25;6087882;19;20073;-74
2024/02/22 07:47:17;;;;;;;15.40;5.65;;;;;;;8.92;100.00;99282.63;6083308;19;20054;-75
2024/02/22 07:49:22;;;;;;;13.13;4.47;;;;;;;8.90;100.00;99276.63;6084210;19;20046;-77
2024/02/22 07:51:28;;;;;;;19.05;6.05;;;;;;;8.90;100.00;99268.75;6085593;19;20459;-76
2024/02/22 07:53:34;;;;;;;10.88;4.70;;;;;;;8.91;100.00;99270.47;6082698;19;20372;-74
2024/02/22 07:55:39;;;;;;;16.00;5.43;;;;;;;8.96;100.00;99265.81;6089024;19;20673;-74
2024/02/22 07:57:42;;;;;;;13.95;5.28;;;;;;;8.96;100.00;99258.78;6088902;19;20471;-75
2024/02/22 07:59:47;;;;;;;11.77;4.55;;;;;;;8.96;100.00;99244.84;6087351;19;20002;-75
2024/02/22 08:01:55;;;;;;;12.30;4.75;;;;;;;8.96;100.00;99239.59;6086545;19;20464;-75
2024/02/22 08:04:02;;;;;;;10.38;5.30;;;;;;;9.05;100.00;99239.03;6086726;19;20021;-78
2024/02/22 08:06:09;;;;;;;11.55;3.95;;;;;;;9.00;100.00;99235.84;6083252;19;20317;-75
2024/02/22 08:08:15;;;;;;;11.45;4.30;;;;;;;9.05;100.00;99238.22;6085648;19;20011;-75
2024/02/22 08:10:20;;;;;;;12.43;5.78;;;;;;;9.05;100.00;99228.56;6082916;19;20011;-75
2024/02/22 08:12:26;;;;;;;15.18;4.65;;;;;;;9.08;100.00;99222.28;6082921;19;20030;-75
2024/02/22 08:14:31;;;;;;;14.73;6.13;;;;;;;9.02;100.00;99223.50;6082045;19;20046;-76
2024/02/22 08:16:37;;;;;;;14.55;5.88;;;;;;;9.00;100.00;99209.66;6085135;19;20442;-75
2024/02/22 08:18:45;;;;;;;12.35;5.28;;;;;;;9.01;100.00;99198.25;6085659;19;20371;-77
2024/02/22 08:20:52;;;;;;;14.93;4.75;;;;;;;9.03;100.00;99185.91;6084270;19;20611;-75
2024/02/22 08:22:54;;;;;;;10.13;4.65;;;;;;;9.01;100.00;99170.28;6087983;19;20785;-75
2024/02/22 08:24:59;;;;;;;11.30;3.92;;;;;;;9.04;100.00;99160.56;6085325;19;20010;-75
2024/02/22 08:27:04;;;;;;;12.50;4.30;;;;;;;9.04;100.00;99165.78;6084773;19;20470;-74
2024/02/22 08:29:09;;;;;;;12.70;4.45;;;;;;;9.06;100.00;99164.75;6086177;19;20086;-74
2024/02/22 08:31:15;;;;;;;9.13;3.88;;;;;;;9.05;100.00;99154.38;6087873;19;20454;-74
2024/02/22 08:33:25;;;;;;;10.63;3.97;;;;;;;9.04;100.00;99164.00;6076935;19;20023;-74
2024/02/22 08:35:34;;;;;;;8.95;4.28;;;;;;;9.08;100.00;99169.88;6084413;19;20091;-75
2024/02/22 08:37:39;;;;;;;9.30;3.80;;;;;;;9.07;100.00;99148.09;6084718;19;20086;-75
2024/02/22 08:39:43;;;;;;;14.75;5.00;;;;;;;9.04;100.00;99145.66;6084717;19;20503;-75
2024/02/22 08:41:47;;;;;;;10.90;5.00;;;;;;;9.08;100.00;99154.16;6085288;19;20053;-75
2024/02/22 08:43:54;;;;;;;13.55;5.38;;;;;;;9.09;100.00;99135.75;6085223;19;20006;-73
2024/02/22 08:46:01;;;;;;;11.73;4.95;;;;;;;9.12;100.00;99130.31;6086361;19;20045;-75
2024/02/22 08:48:08;;;;;;;10.77;5.13;;;;;;;9.14;100.00;99133.69;6085237;19;20078;-74
2024/02/22 08:50:16;;;;;;;14.73;4.47;;;;;;;9.14;100.00;99120.59;6091052;19;20034;-74
2024/02/22 08:52:26;;;;;;;11.73;5.65;;;;;;;9.20;100.00;99124.59;6087784;19;20018;-74
2024/02/22 08:54:36;;;;;;;17.30;4.72;;;;;;;9.15;100.00;99118.78;6091599;19;20021;-75
2024/02/22 08:56:41;;;;;;;15.25;5.70;;;;;;;9.18;100.00;99122.06;6089079;19;20002;-75
2024/02/22 08:58:47;;;;;;;13.40;5.63;;;;;;;9.14;100.00;99107.47;6091876;19;20013;-75
2024/02/22 09:00:52;;;;;;;10.95;4.88;;;;;;;9.16;100.00;99095.13;6092345;19;20014;-76
2024/02/22 09:02:55;;;;;;;14.57;5.70;;;;;;;9.16;100.00;99087.25;6088923;19;20038;-75
2024/02/22 09:05:00;;;;;;;11.05;5.00;;;;;;;9.17;100.00;99083.69;6089454;19;20074;-76
2024/02/22 09:07:07;;;;;;;11.73;5.57;;;;;;;9.23;100.00;99079.84;6090690;19;20010;-75
2024/02/22 09:09:15;;;;;;;16.13;5.35;;;;;;;9.22;100.00;99072.94;6092580;19;20010;-75
2024/02/22 09:11:21;;;;;;;14.25;5.78;;;;;;;9.30;100.00;99059.34;6089305;19;20046;-75
2024/02/22 09:13:28;;;;;;;11.18;5.65;;;;;;;9.43;100.00;99055.00;6085543;19;20019;-75
2024/02/22 09:15:34;;;;;;;16.60;6.78;;;;;;;9.59;100.00;99047.81;6089527;19;20027;-74
2024/02/22 09:17:36;;;;;;;14.63;5.85;;;;;;;9.81;100.00;99044.59;6090710;19;20031;-74
2024/02/22 09:19:42;;;;;;;13.30;5.18;;;;;;;9.95;100.00;99040.22;6089936;19;20354;-74
2024/02/22 09:21:46;;;;;;;10.93;5.30;;;;;;;10.08;100.00;99038.47;6088732;19;20017;-75
2024/02/22 09:23:52;;;;;;;10.27;5.28;;;;;;;10.15;100.00;99031.88;6086944;19;20014;-75
2024/02/22 09:25:59;;;;;;;10.07;4.65;;;;;;;10.42;100.00;99021.28;6089609;19;20018;-75
2024/02/22 09:28:05;;;;;;;10.50;5.05;;;;;;;10.27;100.00;99002.19;6091674;19;20006;-76
2024/02/22 09:30:10;;;;;;;9.65;4.45;;;;;;;10.46;100.00;98995.69;6090647;19;20037;-76
2024/02/22 09:32:15;;;;;;;12.48;4.60;;;;;;;10.52;100.00;99001.31;6089566;19;20545;-75
2024/02/22 09:34:21;;;;;;;10.35;4.55;;;;;;;10.56;100.00;99015.09;6087474;19;20010;-75
2024/02/22 09:36:27;;;;;;;12.40;4.88;;;;;;;10.60;100.00;99003.41;6088169;19;20621;-76
2024/02/22 09:38:34;;;;;;;10.20;4.82;;;;;;;10.17;100.00;98989.78;6091056;19;20015;-75
2024/02/22 09:40:40;;;;;;;9.85;5.03;;;;;;;10.03;100.00;98975.81;6083610;19;20010;-75
2024/02/22 09:42:52;;;;;;;10.20;4.18;;;;;;;10.02;100.00;98973.28;6088471;19;20007;-75
2024/02/22 09:44:58;;;;;;;9.93;4.32;;;;;;;10.04;100.00;98966.97;6081442;19;20019;-76